Riverton, Nebraska
Current Conditions -  °F | °C
As of 6:15 AM on Sunday 25 Jan 2015 (Local Time) from KHDE Reporting Station
Scattered Clouds Scattered Clouds  
Wind Chill: -2°   Ceiling: Unl
Heat Index:   Visibility: 10mi
Dew Point: -3°   Wind: 20mph
Humidity: 64%   Direction: 340°NNW
Pressure: 29.94"   Gusts: 30mph
Location:  40.09°N, 98.76°W
Report Text: KHDE 251215Z AUTO 34017G26KT 10SM SCT038 04/M03 A2994 RMK AO2 T00361027
Loading
Personal Weather Stations






























Interactive Weather Map New forecast layout! Learn more

10-Day Weather Forecast

Advertisements
Track Severe Weather on mobile